createdAt,value
2022-09-20T00:01:48.658Z,86.84
2022-09-20T00:06:40.297Z,86.49
2022-09-20T00:11:34.129Z,86.67
2022-09-20T00:16:29.154Z,87.46
2022-09-20T00:21:25.847Z,87.49
2022-09-20T00:26:18.737Z,88.40
2022-09-20T00:31:12.062Z,88.31
2022-09-20T00:36:03.868Z,89.63
2022-09-20T00:40:55.441Z,90.07
2022-09-20T00:45:49.749Z,89.63
2022-09-20T00:50:57.078Z,90.30
2022-09-20T00:56:04.489Z,89.44
2022-09-20T01:00:58.182Z,89.25
2022-09-20T01:05:53.119Z,89.51
2022-09-20T01:10:45.015Z,89.28
2022-09-20T01:15:38.958Z,89.57
2022-09-20T01:20:33.447Z,89.16
2022-09-20T01:25:53.216Z,88.71
2022-09-20T01:31:02.177Z,90.21
2022-09-20T01:35:57.368Z,91.22
2022-09-20T01:41:09.134Z,92.03
2022-09-20T01:46:30.430Z,93.06
2022-09-20T01:51:43.246Z,93.52
2022-09-20T01:56:53.234Z,94.03
2022-09-20T02:01:53.734Z,93.79
2022-09-20T02:07:04.040Z,93.86
2022-09-20T02:12:10.922Z,93.99
2022-09-20T02:17:23.249Z,93.06
2022-09-20T02:22:56.997Z,93.43
2022-09-20T02:28:00.838Z,93.77
2022-09-20T02:32:58.289Z,94.32
2022-09-20T02:38:08.513Z,94.12
2022-09-20T02:43:27.779Z,94.22
2022-09-20T02:48:27.674Z,94.70
2022-09-20T02:53:45.043Z,94.51
2022-09-20T02:59:04.333Z,94.54
2022-09-20T03:04:19.042Z,94.78
2022-09-20T03:09:29.620Z,94.70
2022-09-20T03:14:28.325Z,94.52
2022-09-20T03:19:22.867Z,94.59
2022-09-20T03:24:39.349Z,94.77
2022-09-20T03:30:10.204Z,93.87
2022-09-20T03:35:21.445Z,94.19
2022-09-20T03:40:31.957Z,94.19
2022-09-20T03:45:51.103Z,93.79
2022-09-20T03:50:48.077Z,93.11
2022-09-20T03:55:51.599Z,93.18
2022-09-20T04:01:34.390Z,92.68
2022-09-20T04:07:00.105Z,92.50
2022-09-20T04:12:33.459Z,92.22
2022-09-20T04:17:52.580Z,91.94
2022-09-20T04:22:46.672Z,91.73
2022-09-20T04:28:05.070Z,91.27
2022-09-20T04:33:05.884Z,91.14
2022-09-20T04:37:59.185Z,91.17
2022-09-20T04:43:17.629Z,91.02
2022-09-20T04:48:31.073Z,91.46
2022-09-20T04:53:44.128Z,91.13
2022-09-20T04:58:47.073Z,91.22
2022-09-20T05:04:09.905Z,91.20
2022-09-20T05:09:23.231Z,92.58
2022-09-20T05:14:36.024Z,92.69
2022-09-20T05:19:43.193Z,92.56
2022-09-20T05:24:34.762Z,93.65
2022-09-20T05:29:47.866Z,93.81
2022-09-20T05:34:51.193Z,94.66
2022-09-20T05:40:13.313Z,94.33
2022-09-20T05:45:18.231Z,95.10
2022-09-20T05:50:29.919Z,95.55
2022-09-20T05:55:48.918Z,96.12
2022-09-20T06:01:04.882Z,96.51
2022-09-20T06:06:13.186Z,97.41
2022-09-20T06:11:27.361Z,97.57
2022-09-20T06:16:37.116Z,97.60
2022-09-20T06:21:47.058Z,98.90
2022-09-20T06:26:40.927Z,98.76
2022-09-20T06:31:33.024Z,99.13
2022-09-20T06:36:50.372Z,99.22
2022-09-20T06:41:42.792Z,99.52
2022-09-20T06:46:36.276Z,99.70
2022-09-20T06:51:33.836Z,100.00
2022-09-20T06:56:28.173Z,100.00
2022-09-20T07:01:29.791Z,100.00
2022-09-20T07:06:22.028Z,100.00
2022-09-20T07:11:16.463Z,100.00
2022-09-20T07:16:10.902Z,99.81
2022-09-20T07:21:03.103Z,98.37
2022-09-20T07:25:54.854Z,97.75
2022-09-20T07:30:50.101Z,97.32
2022-09-20T07:35:41.755Z,96.88
2022-09-20T07:40:33.413Z,96.18
2022-09-20T07:45:25.340Z,94.92
2022-09-20T07:50:17.088Z,94.40
2022-09-20T07:55:09.232Z,94.26
2022-09-20T08:00:00.931Z,92.58
2022-09-20T08:04:52.577Z,91.98
2022-09-20T08:09:44.373Z,91.93
2022-09-20T08:14:36.165Z,92.16
2022-09-20T08:19:27.796Z,91.74
2022-09-20T08:24:19.720Z,90.85
2022-09-20T08:29:12.249Z,90.43
2022-09-20T08:34:09.198Z,89.24
2022-09-20T08:44:25.721Z,88.75
2022-09-20T08:49:26.207Z,88.51
2022-09-20T08:54:18.148Z,88.72
2022-09-20T08:59:16.076Z,87.56
2022-09-20T09:04:15.553Z,87.61
2022-09-20T09:09:07.860Z,86.45
2022-09-20T09:14:31.728Z,86.64
2022-09-20T09:19:34.196Z,85.86
2022-09-20T09:24:26.370Z,85.28
2022-09-20T09:29:22.970Z,83.88
2022-09-20T09:34:25.415Z,83.46
2022-09-20T09:39:27.890Z,83.39
2022-09-20T09:44:25.700Z,83.45
2022-09-20T09:49:18.757Z,83.68
2022-09-20T09:54:19.838Z,82.87
2022-09-20T09:59:26.469Z,83.30
2022-09-20T10:04:28.649Z,82.67
2022-09-20T10:09:50.187Z,82.47
2022-09-20T10:15:04.553Z,81.81
2022-09-20T10:20:10.431Z,81.47
2022-09-20T10:25:13.365Z,81.90
2022-09-20T10:30:22.353Z,80.93
2022-09-20T10:35:23.929Z,79.38
2022-09-20T10:40:15.708Z,79.62
2022-09-20T10:46:14.059Z,77.06
2022-09-20T10:51:00.405Z,74.67
2022-09-20T10:56:10.655Z,70.76
2022-09-20T11:01:23.332Z,71.09
2022-09-20T11:06:32.997Z,69.89
2022-09-20T11:11:34.808Z,68.90
2022-09-20T11:16:36.668Z,66.91
2022-09-20T11:21:38.446Z,64.27
2022-09-20T11:26:38.656Z,65.67
2022-09-20T11:31:36.423Z,64.49
2022-09-20T11:36:36.913Z,61.94
2022-09-20T11:41:30.611Z,60.71
2022-09-20T11:46:27.958Z,60.25
2022-09-20T11:51:31.781Z,60.75
2022-09-20T11:56:30.961Z,59.90
2022-09-20T12:01:33.432Z,57.01
2022-09-20T12:06:38.561Z,58.11
2022-09-20T12:11:38.730Z,55.96
2022-09-20T12:16:43.436Z,56.13
2022-09-20T12:21:59.852Z,53.94
2022-09-20T12:26:56.304Z,52.37
2022-09-20T12:31:50.010Z,51.05
2022-09-20T12:37:05.669Z,49.05
2022-09-20T12:42:12.314Z,51.25
2022-09-20T12:47:25.615Z,48.13
2022-09-20T12:52:58.541Z,49.75
2022-09-20T12:57:54.592Z,48.32
2022-09-20T13:02:52.934Z,47.88
2022-09-20T13:07:54.045Z,48.16
2022-09-20T13:12:49.491Z,48.60
2022-09-20T13:17:46.280Z,48.34
2022-09-20T13:22:45.419Z,50.49
2022-09-20T13:27:51.216Z,49.40
2022-09-20T13:32:42.906Z,50.28
2022-09-20T13:37:36.457Z,47.90
2022-09-20T13:42:30.140Z,49.02
2022-09-20T13:47:32.502Z,48.98
2022-09-20T13:52:27.545Z,48.69
2022-09-20T13:57:26.661Z,49.04
2022-09-20T14:02:29.825Z,50.98
2022-09-20T14:07:25.917Z,49.49
2022-09-20T14:12:18.644Z,49.17
2022-09-20T14:17:15.680Z,47.10
2022-09-20T14:22:08.508Z,47.95
2022-09-20T14:27:19.360Z,45.09
2022-09-20T14:32:17.129Z,46.65
2022-09-20T14:37:32.870Z,48.01
2022-09-20T14:42:33.814Z,48.08
2022-09-20T14:48:11.991Z,49.29
2022-09-20T14:53:12.507Z,49.32
2022-09-20T14:58:13.558Z,49.75
2022-09-20T15:03:08.469Z,49.14
2022-09-20T15:08:00.999Z,47.91
2022-09-20T15:12:52.755Z,48.49
2022-09-20T15:17:45.997Z,48.44
2022-09-20T15:22:38.695Z,48.41
2022-09-20T15:27:30.309Z,47.89
2022-09-20T15:32:23.135Z,49.41
2022-09-20T15:37:14.749Z,49.90
2022-09-20T15:42:07.021Z,48.73
2022-09-20T15:46:58.826Z,48.94
2022-09-20T15:51:50.589Z,48.25
2022-09-20T15:56:42.619Z,46.98
2022-09-20T16:01:39.884Z,47.60
2022-09-20T16:06:32.826Z,48.78
2022-09-20T16:11:24.910Z,48.61
2022-09-20T16:16:17.832Z,47.98
2022-09-20T16:21:12.114Z,48.80
2022-09-20T16:26:03.870Z,49.25
2022-09-20T16:30:59.757Z,48.71
2022-09-20T16:35:51.486Z,49.75
2022-09-20T16:40:43.159Z,49.57
2022-09-20T16:45:35.719Z,49.95
2022-09-20T16:50:27.388Z,50.95
2022-09-20T16:55:20.697Z,52.02
2022-09-20T17:00:13.005Z,51.92
2022-09-20T17:05:05.401Z,52.23
2022-09-20T17:10:01.292Z,52.46
2022-09-20T17:14:52.936Z,52.74
2022-09-20T17:19:44.602Z,53.27
2022-09-20T17:24:36.238Z,54.24
2022-09-20T17:29:27.918Z,54.10
2022-09-20T17:34:21.905Z,54.46
2022-09-20T17:39:15.441Z,54.61
2022-09-20T17:44:11.869Z,55.27
2022-09-20T17:49:06.949Z,55.48
2022-09-20T17:53:59.075Z,56.31
2022-09-20T17:58:50.749Z,56.79
2022-09-20T18:03:46.113Z,57.52
2022-09-20T18:08:38.279Z,58.49
2022-09-20T18:13:30.899Z,59.34
2022-09-20T18:18:22.756Z,60.03
2022-09-20T18:23:14.715Z,60.63
2022-09-20T18:28:06.336Z,60.84
2022-09-20T18:32:57.941Z,61.31
2022-09-20T18:37:49.805Z,61.43
2022-09-20T18:42:41.527Z,61.88
2022-09-20T18:47:33.269Z,62.07
2022-09-20T18:52:24.931Z,62.16
2022-09-20T18:57:16.853Z,62.54
2022-09-20T19:02:31.374Z,62.67
2022-09-20T19:07:43.673Z,62.83
2022-09-20T19:12:41.943Z,62.92
2022-09-20T19:18:14.967Z,63.06
2022-09-20T19:23:50.292Z,62.86
2022-09-20T19:28:42.349Z,62.80
2022-09-20T19:33:34.329Z,62.22
2022-09-20T19:38:48.952Z,62.16
2022-09-20T19:44:04.385Z,62.55
2022-09-20T19:49:08.036Z,62.44
2022-09-20T19:53:59.808Z,62.47
2022-09-20T19:58:53.368Z,62.93
2022-09-20T20:03:47.408Z,62.94
2022-09-20T20:08:50.726Z,62.65
2022-09-20T20:14:03.912Z,62.59
2022-09-20T20:19:06.761Z,62.62
2022-09-20T20:24:23.744Z,63.34
2022-09-20T20:29:15.421Z,63.46
2022-09-20T20:34:08.818Z,63.42
2022-09-20T20:39:02.632Z,63.85
2022-09-20T20:43:57.351Z,63.83
2022-09-20T20:48:49.605Z,64.12
2022-09-20T20:53:47.698Z,65.03
2022-09-20T20:58:41.240Z,64.07
2022-09-20T21:03:33.636Z,64.79
2022-09-20T21:08:31.000Z,65.59
2022-09-20T21:13:22.740Z,65.37
2022-09-20T21:18:14.714Z,65.68
2022-09-20T21:23:06.412Z,66.16
2022-09-20T21:27:59.141Z,66.10
2022-09-20T21:32:53.785Z,66.86
2022-09-20T21:37:45.449Z,67.62
2022-09-20T21:42:37.068Z,68.23
2022-09-20T21:47:29.032Z,68.78
2022-09-20T21:52:20.794Z,69.54
2022-09-20T21:57:13.722Z,69.52
2022-09-20T22:02:05.556Z,69.83
2022-09-20T22:06:57.190Z,69.92
2022-09-20T22:11:49.095Z,71.21
2022-09-20T22:16:42.749Z,71.29
2022-09-20T22:21:37.305Z,71.47
2022-09-20T22:26:31.894Z,72.18
2022-09-20T22:31:26.116Z,72.55
2022-09-20T22:36:23.248Z,72.72
2022-09-20T22:41:16.634Z,73.34
2022-09-20T22:46:10.910Z,73.87
2022-09-20T22:51:11.175Z,73.97
2022-09-20T22:56:02.831Z,74.61
2022-09-20T23:00:54.483Z,74.74
2022-09-20T23:05:46.293Z,74.93
2022-09-20T23:10:37.869Z,75.47
2022-09-20T23:15:29.427Z,75.61
2022-09-20T23:20:21.199Z,76.01
2022-09-20T23:25:12.813Z,76.18
2022-09-20T23:30:05.313Z,76.32
2022-09-20T23:34:57.219Z,76.28
2022-09-20T23:39:48.830Z,76.37
2022-09-20T23:44:40.569Z,75.94
2022-09-20T23:49:32.245Z,75.59
2022-09-20T23:54:24.509Z,76.19
2022-09-20T23:59:16.208Z,75.77
